Time;durP1;ratioP1;P1;durP2;ratioP2;P2;SDS_P1;SDS_P2;PMS_P1;PMS_P2;Temp;Humidity;BMP_temperature;BMP_pressure;BME280_temperature;BME280_humidity;BME280_pressure;Samples;Min_cycle;Max_cycle;Signal;HPM_P1;HPM_P2
2021/05/26 00:00:20;;;;;;;2.22;1.87;;;;;;;15.84;76.69;100720.88;1846633;76;20997;-45
2021/05/26 00:02:47;;;;;;;4.47;2.30;;;;;;;15.77;76.71;100714.63;1850198;76;21036;-47
2021/05/26 00:05:15;;;;;;;4.25;2.47;;;;;;;15.71;77.07;100716.43;1842766;77;21020;-45
2021/05/26 00:07:41;;;;;;;2.67;2.25;;;;;;;15.66;77.66;100725.30;1845500;76;21088;-45
2021/05/26 00:10:10;;;;;;;6.53;2.10;;;;;;;15.64;78.03;100735.30;1837039;76;20988;-48
2021/05/26 00:12:37;;;;;;;3.25;1.87;;;;;;;15.67;78.15;100739.59;1838493;76;21013;-47
2021/05/26 00:15:07;;;;;;;2.27;2.00;;;;;;;15.69;78.24;100749.75;1832282;77;20992;-49
2021/05/26 00:17:33;;;;;;;3.00;2.10;;;;;;;15.71;78.24;100752.72;1842061;77;21071;-45
2021/05/26 00:20:01;;;;;;;3.50;1.82;;;;;;;15.74;78.25;100746.25;1844033;77;20984;-49
2021/05/26 00:22:27;;;;;;;3.55;2.37;;;;;;;15.74;78.23;100744.41;1843881;77;21792;-51
2021/05/26 00:24:54;;;;;;;2.10;1.85;;;;;;;15.72;78.15;100742.36;1836573;75;21030;-50
2021/05/26 00:27:21;;;;;;;2.05;1.85;;;;;;;15.72;78.13;100746.85;1837847;76;21538;-49
2021/05/26 00:29:48;;;;;;;4.83;1.90;;;;;;;15.72;78.10;100741.48;1839135;77;20981;-46
2021/05/26 00:32:14;;;;;;;3.22;2.50;;;;;;;15.69;78.23;100735.84;1841913;77;21009;-49
2021/05/26 00:34:41;;;;;;;2.77;1.98;;;;;;;15.70;78.39;100747.45;1847476;77;21076;-48
2021/05/26 00:37:07;;;;;;;3.98;2.15;;;;;;;15.69;78.47;100753.78;1832246;76;20996;-49
2021/05/26 00:39:34;;;;;;;2.95;2.12;;;;;;;15.67;78.55;100749.00;1832580;76;21068;-46
2021/05/26 00:42:00;;;;;;;2.20;1.90;;;;;;;15.67;78.71;100750.34;1837540;77;21052;-45
2021/05/26 00:44:27;;;;;;;4.65;1.80;;;;;;;15.66;78.89;100755.36;1832027;76;20974;-45
2021/05/26 00:46:54;;;;;;;2.87;1.77;;;;;;;15.66;79.01;100745.95;1843434;77;20996;-50
2021/05/26 00:49:22;;;;;;;2.75;2.05;;;;;;;15.66;79.09;100754.02;1844262;75;20981;-52
2021/05/26 00:51:49;;;;;;;3.02;2.15;;;;;;;15.65;79.18;100753.17;1848510;76;20984;-46
2021/05/26 00:54:16;;;;;;;2.85;2.10;;;;;;;15.64;79.20;100752.78;1831397;76;21581;-47
2021/05/26 00:56:43;;;;;;;6.83;3.08;;;;;;;15.62;79.20;100746.66;1803870;77;21008;-47
2021/05/26 00:59:09;;;;;;;3.20;2.05;;;;;;;15.61;79.23;100740.92;1849313;76;21032;-45
2021/05/26 01:01:37;;;;;;;3.58;2.40;;;;;;;15.59;79.13;100734.80;1850163;76;20992;-48
2021/05/26 01:04:05;;;;;;;3.80;2.35;;;;;;;15.58;79.03;100734.44;1827239;77;21056;-47
2021/05/26 01:06:32;;;;;;;4.12;2.17;;;;;;;15.55;78.87;100739.56;1816163;77;21002;-47
2021/05/26 01:08:59;;;;;;;4.15;2.37;;;;;;;15.53;78.79;100737.96;1834335;76;21022;-48
2021/05/26 01:11:25;;;;;;;2.98;2.10;;;;;;;15.51;78.74;100737.21;1848251;76;21035;-43
2021/05/26 01:13:53;;;;;;;2.85;2.15;;;;;;;15.50;78.69;100736.85;1845809;76;21021;-48
2021/05/26 01:16:20;;;;;;;2.60;1.90;;;;;;;15.47;78.63;100736.59;1848927;77;20972;-44
2021/05/26 01:18:49;;;;;;;2.65;2.45;;;;;;;15.45;78.60;100735.00;1851173;75;20989;-48
2021/05/26 01:21:18;;;;;;;5.05;2.08;;;;;;;15.43;78.54;100725.70;1847978;77;20984;-48
2021/05/26 01:23:46;;;;;;;2.85;2.35;;;;;;;15.40;78.52;100719.22;1851694;76;21391;-50
2021/05/26 01:26:15;;;;;;;3.72;2.62;;;;;;;15.40;78.53;100721.05;1843588;77;20965;-44
2021/05/26 01:28:43;;;;;;;5.25;3.08;;;;;;;15.39;78.53;100718.83;1850170;76;21973;-46
2021/05/26 01:31:12;;;;;;;6.47;2.30;;;;;;;15.38;78.49;100718.47;1856263;75;21626;-44
2021/05/26 01:33:39;;;;;;;2.77;2.15;;;;;;;15.37;78.47;100719.42;1852525;75;20972;-50
2021/05/26 01:36:10;;;;;;;2.75;1.90;;;;;;;15.34;78.48;100717.82;1849402;77;20965;-47
2021/05/26 01:38:37;;;;;;;3.87;2.15;;;;;;;15.34;78.62;100712.94;1834054;77;21043;-48
2021/05/26 01:41:04;;;;;;;3.40;2.00;;;;;;;15.33;78.74;100709.89;1845935;76;20961;-45
2021/05/26 01:43:34;;;;;;;2.98;1.87;;;;;;;15.32;78.88;100714.42;1844738;77;21044;-53
2021/05/26 01:46:01;;;;;;;3.15;2.02;;;;;;;15.32;79.01;100717.56;1835847;77;21016;-51
2021/05/26 01:48:30;;;;;;;2.55;2.22;;;;;;;15.32;79.18;100721.13;1847946;76;21056;-51
2021/05/26 01:50:57;;;;;;;2.20;1.60;;;;;;;15.31;79.33;100716.72;1851762;76;21025;-50
2021/05/26 01:53:26;;;;;;;2.30;1.92;;;;;;;15.30;79.44;100713.67;1831726;75;20988;-54
2021/05/26 01:55:54;;;;;;;2.70;1.98;;;;;;;15.30;79.57;100709.64;1791131;77;20996;-47
2021/05/26 01:58:21;;;;;;;2.02;1.60;;;;;;;15.29;79.57;100709.73;1850466;76;21048;-50
2021/05/26 02:00:49;;;;;;;2.72;1.87;;;;;;;15.25;79.43;100710.47;1852127;76;21561;-46
2021/05/26 02:03:15;;;;;;;1.62;1.45;;;;;;;15.19;79.50;100708.71;1849799;77;21103;-49
2021/05/26 02:05:43;;;;;;;3.83;1.82;;;;;;;15.17;79.57;100704.81;1842907;75;21013;-45
2021/05/26 02:08:10;;;;;;;1.45;1.35;;;;;;;15.18;79.71;100710.55;1846026;76;21581;-45
2021/05/26 02:13:22;;;;;;;2.98;1.70;;;;;;;15.18;79.75;100707.86;1842982;77;21016;-53
2021/05/26 02:15:50;;;;;;;1.45;1.32;;;;;;;15.18;79.75;100702.49;1841913;76;21008;-52
2021/05/26 02:18:17;;;;;;;3.98;2.30;;;;;;;15.18;79.77;100701.64;1814482;77;21000;-55
2021/05/26 02:20:44;;;;;;;2.47;1.67;;;;;;;15.18;79.78;100702.49;1847273;75;21009;-48
2021/05/26 02:23:13;;;;;;;2.50;1.70;;;;;;;15.18;79.83;100694.44;1838878;77;21352;-47
2021/05/26 02:25:41;;;;;;;3.30;2.00;;;;;;;15.19;79.88;100695.28;1813309;77;21027;-51
2021/05/26 02:28:10;;;;;;;3.22;1.42;;;;;;;15.19;79.96;100694.79;1853806;76;21335;-48
2021/05/26 02:30:37;;;;;;;2.55;1.60;;;;;;;15.15;79.86;100696.86;1830185;76;20995;-51
2021/05/26 02:33:05;;;;;;;2.20;1.55;;;;;;;15.11;79.78;100699.39;1837473;77;20968;-55
2021/05/26 02:35:33;;;;;;;2.47;1.85;;;;;;;15.10;79.86;100703.06;1839490;76;20990;-47
2021/05/26 02:37:59;;;;;;;2.55;1.50;;;;;;;15.11;79.97;100702.56;1854214;76;20992;-48
2021/05/26 02:40:28;;;;;;;2.58;1.50;;;;;;;15.10;80.15;100707.09;1839631;77;21082;-50
2021/05/26 02:42:56;;;;;;;2.15;1.37;;;;;;;15.11;80.27;100707.94;1845143;76;21005;-52
2021/05/26 02:45:23;;;;;;;2.83;1.57;;;;;;;15.14;80.36;100709.93;1816453;77;21020;-48
2021/05/26 02:47:51;;;;;;;1.85;1.50;;;;;;;15.15;80.43;100711.63;1852143;76;20956;-51
2021/05/26 02:50:18;;;;;;;2.60;1.47;;;;;;;15.18;80.51;100707.02;1825689;77;21070;-52
2021/05/26 02:52:47;;;;;;;2.10;1.67;;;;;;;15.20;80.66;100709.10;1851324;75;21506;-49
2021/05/26 02:55:16;;;;;;;2.85;1.60;;;;;;;15.21;80.85;100710.31;1842851;76;21567;-54
2021/05/26 02:57:44;;;;;;;2.67;1.70;;;;;;;15.24;81.07;100709.23;1838974;77;21048;-50
2021/05/26 03:00:20;;;;;;;5.28;1.95;;;;;;;15.27;81.27;100715.25;1710210;82;21381;-51
2021/05/26 03:02:48;;;;;;;6.40;5.13;;;;;;;15.29;81.46;100715.97;1702503;82;21073;-52
2021/05/26 03:05:16;;;;;;;3.80;2.50;;;;;;;15.31;81.68;100717.20;1686924;83;21737;-53
2021/05/26 03:07:43;;;;;;;4.97;2.30;;;;;;;15.34;82.02;100718.31;1719991;81;21049;-59
2021/05/26 03:10:12;;;;;;;5.25;3.67;;;;;;;15.37;82.33;100718.08;1704723;82;21134;-50
2021/05/26 03:12:40;;;;;;;5.50;3.47;;;;;;;15.43;82.63;100712.75;1693958;82;21014;-48
2021/05/26 03:15:13;;;;;;;3.50;2.67;;;;;;;15.49;83.06;100717.66;1710048;81;21652;-48
2021/05/26 03:17:40;;;;;;;3.90;2.20;;;;;;;15.55;83.40;100726.62;1707878;81;21090;-47
2021/05/26 03:20:11;;;;;;;2.02;1.77;;;;;;;15.63;83.81;100726.03;1695027;81;21062;-48
2021/05/26 03:22:48;;;;;;;2.08;1.75;;;;;;;15.70;84.04;100720.11;1705416;83;21022;-51
2021/05/26 03:25:23;;;;;;;2.42;1.95;;;;;;;15.79;84.33;100727.45;1710766;81;21221;-51
2021/05/26 03:27:52;;;;;;;14.13;2.30;;;;;;;15.88;84.50;100727.74;1687767;82;21606;-47
2021/05/26 03:30:19;;;;;;;3.55;2.15;;;;;;;15.94;84.59;100723.22;1656873;84;21065;-56
2021/05/26 03:32:46;;;;;;;1.32;1.22;;;;;;;16.05;84.55;100721.03;1642024;85;21004;-54
2021/05/26 03:35:14;;;;;;;2.75;1.72;;;;;;;16.11;84.55;100721.42;1661968;84;21084;-49
2021/05/26 03:37:41;;;;;;;2.87;1.50;;;;;;;16.19;84.40;100714.95;1712763;80;21040;-46
2021/05/26 03:40:11;;;;;;;1.98;1.42;;;;;;;16.28;84.56;100712.51;1769515;78;21048;-47
2021/05/26 03:42:39;;;;;;;3.57;1.60;;;;;;;16.43;84.80;100720.75;1770015;79;21009;-50
2021/05/26 03:45:09;;;;;;;2.98;1.65;;;;;;;16.43;84.80;100720.75;1747621;80;21694;-47
2021/05/26 03:47:37;;;;;;;2.08;1.65;;;;;;;16.49;84.47;100715.36;1766178;79;21011;-50
2021/05/26 03:50:06;;;;;;;4.10;1.60;;;;;;;16.55;84.10;100714.85;1785917;78;21025;-48
2021/05/26 03:52:33;;;;;;;2.12;1.57;;;;;;;16.60;83.77;100708.61;1762380;80;21004;-47
2021/05/26 03:55:01;;;;;;;2.42;1.62;;;;;;;16.66;83.38;100714.38;1756866;80;21021;-48
2021/05/26 03:57:27;;;;;;;5.30;1.82;;;;;;;16.71;83.14;100715.84;1787507;78;20981;-46
2021/05/26 03:59:54;;;;;;;3.25;1.60;;;;;;;16.75;82.74;100707.87;1811123;77;21004;-47
2021/05/26 04:02:22;;;;;;;4.15;1.47;;;;;;;16.79;82.57;100711.58;1759364;80;21393;-47
2021/05/26 04:04:48;;;;;;;3.72;2.12;;;;;;;16.85;82.50;100708.87;1739419;79;21056;-46
2021/05/26 04:07:16;;;;;;;1.70;1.52;;;;;;;16.89;82.36;100713.03;1758518;79;21028;-54
2021/05/26 04:09:46;;;;;;;3.10;1.90;;;;;;;16.94;81.92;100720.25;1783411;78;21020;-51
2021/05/26 04:12:14;;;;;;;3.22;1.30;;;;;;;17.00;81.52;100715.70;1783874;78;20992;-51
2021/05/26 04:14:42;;;;;;;3.33;1.72;;;;;;;17.07;80.96;100717.41;1754646;79;21020;-54
2021/05/26 04:17:19;;;;;;;3.22;1.72;;;;;;;17.13;80.63;100724.13;1688627;83;21678;-51
2021/05/26 04:20:02;;;;;;;2.95;2.15;;;;;;;17.18;80.40;100738.07;1732253;82;21383;-52
2021/05/26 04:22:26;;;;;;;;;;;;;;;17.22;80.43;100755.70;1713854;82;21048;-49
2021/05/26 04:24:54;;;;;;;3.83;1.70;;;;;;;17.26;80.39;100751.76;1743905;81;20570;-48
2021/05/26 04:27:21;;;;;;;3.30;1.65;;;;;;;17.31;80.13;100763.02;1688816;83;21083;-47
2021/05/26 04:29:48;;;;;;;5.03;2.50;;;;;;;17.35;79.74;100762.29;1731025;81;21075;-51
2021/05/26 04:32:15;;;;;;;19.17;15.80;;;;;;;17.40;79.66;100760.92;1694154;82;21036;-54
2021/05/26 04:34:42;;;;;;;7.55;5.97;;;;;;;17.44;79.78;100754.30;1717044;82;21016;-49
2021/05/26 04:37:09;;;;;;;7.25;3.37;;;;;;;17.48;79.71;100758.94;1727623;81;21051;-49
2021/05/26 04:39:35;;;;;;;3.08;2.33;;;;;;;17.53;79.45;100760.25;1719957;80;21622;-58
2021/05/26 04:42:02;;;;;;;3.00;2.45;;;;;;;17.58;78.94;100759.03;1717919;81;21057;-56
2021/05/26 04:44:29;;;;;;;3.10;1.70;;;;;;;17.61;78.35;100762.31;1729538;80;21719;-51
2021/05/26 04:46:56;;;;;;;2.30;1.75;;;;;;;17.65;78.05;100754.84;1722043;82;21586;-52
2021/05/26 04:49:24;;;;;;;3.72;1.82;;;;;;;17.68;77.64;100749.18;1721877;81;21583;-47
2021/05/26 04:51:50;;;;;;;3.00;1.92;;;;;;;17.69;77.38;100753.61;1712709;82;21029;-49
2021/05/26 04:54:18;;;;;;;3.67;1.85;;;;;;;17.71;77.10;100753.84;1757381;79;21009;-53
2021/05/26 04:56:44;;;;;;;3.65;2.35;;;;;;;17.72;76.85;100756.04;1776776;79;21013;-53
2021/05/26 04:59:12;;;;;;;2.50;1.80;;;;;;;17.72;76.74;100754.69;1777523;78;21574;-48
2021/05/26 05:01:38;;;;;;;2.20;1.60;;;;;;;17.74;76.78;100755.42;1785823;78;21052;-49
2021/05/26 05:04:05;;;;;;;6.37;2.02;;;;;;;17.77;76.89;100757.00;1783053;78;21886;-49
2021/05/26 05:06:32;;;;;;;4.47;2.65;;;;;;;17.80;77.06;100748.68;1788320;78;21593;-56
2021/05/26 05:08:59;;;;;;;1.98;1.60;;;;;;;17.83;77.23;100747.91;1792290;78;21001;-54
2021/05/26 05:11:27;;;;;;;2.08;1.70;;;;;;;17.86;77.10;100743.60;1780744;78;21000;-52
2021/05/26 05:13:53;;;;;;;5.30;3.08;;;;;;;17.89;76.93;100743.37;1770447;78;21047;-52
2021/05/26 05:16:20;;;;;;;2.92;2.58;;;;;;;17.91;76.91;100749.45;1787375;78;21040;-55
2021/05/26 05:18:47;;;;;;;2.62;1.67;;;;;;;17.97;77.05;100749.92;1783404;79;21013;-45
2021/05/26 05:21:14;;;;;;;4.00;1.70;;;;;;;18.01;76.93;100764.38;1763725;79;21031;-47
2021/05/26 05:23:41;;;;;;;3.20;2.40;;;;;;;18.04;76.77;100760.09;1803305;78;21349;-48
2021/05/26 05:26:08;;;;;;;2.40;2.20;;;;;;;18.07;76.70;100766.56;1791319;78;21008;-52
2021/05/26 05:28:35;;;;;;;2.72;2.20;;;;;;;18.10;76.64;100762.75;1801658;78;21562;-50
2021/05/26 05:31:01;;;;;;;3.52;1.90;;;;;;;18.13;76.66;100767.38;1798077;78;21033;-56
2021/05/26 05:33:28;;;;;;;4.37;2.22;;;;;;;18.15;76.59;100771.30;1793769;78;21057;-59
2021/05/26 05:35:55;;;;;;;2.75;1.70;;;;;;;18.18;76.40;100775.58;1804414;77;21021;-49
2021/05/26 05:38:22;;;;;;;4.45;2.10;;;;;;;18.19;76.26;100772.73;1796704;78;20979;-57
2021/05/26 05:40:48;;;;;;;4.15;2.00;;;;;;;18.22;76.35;100766.22;1764147;80;21029;-50
2021/05/26 05:43:16;;;;;;;8.63;6.90;;;;;;;18.23;76.23;100765.25;1788683;78;21048;-50
2021/05/26 05:45:42;;;;;;;4.92;2.50;;;;;;;18.24;76.04;100768.29;1803553;78;20977;-52
2021/05/26 05:48:10;;;;;;;2.65;2.20;;;;;;;18.26;75.83;100767.17;1752063;80;21016;-52
2021/05/26 05:50:37;;;;;;;2.05;1.67;;;;;;;18.29;75.96;100766.05;1770050;80;21011;-54
2021/05/26 05:53:06;;;;;;;3.60;1.98;;;;;;;18.31;75.50;100771.67;1776405;79;21036;-50
2021/05/26 05:55:33;;;;;;;2.17;1.87;;;;;;;18.32;75.21;100761.27;1759158;78;21017;-53
2021/05/26 05:58:04;;;;;;;3.12;2.20;;;;;;;18.34;75.06;100768.73;1765515;80;20993;-55
2021/05/26 06:00:28;;;;;;;3.42;1.75;;;;;;;18.36;75.00;100774.83;1765499;79;21048;-55
2021/05/26 06:02:56;;;;;;;2.95;2.47;;;;;;;18.40;74.92;100778.14;1765830;79;21055;-54
2021/05/26 06:05:22;;;;;;;4.17;2.30;;;;;;;18.42;74.93;100777.52;1762591;79;21028;-55
2021/05/26 06:07:49;;;;;;;5.85;2.05;;;;;;;18.45;74.84;100784.50;1772046;79;20997;-54
2021/05/26 06:10:16;;;;;;;3.60;2.47;;;;;;;18.45;74.55;100778.59;1801824;78;20957;-56
2021/05/26 06:12:46;;;;;;;2.15;1.50;;;;;;;18.46;74.40;100780.30;1770411;79;21060;-53
2021/05/26 06:15:14;;;;;;;3.20;2.20;;;;;;;18.48;74.60;100789.63;1771566;79;20989;-54
2021/05/26 06:17:42;;;;;;;2.70;1.90;;;;;;;18.50;74.63;100789.00;1778526;79;21068;-53
2021/05/26 06:20:10;;;;;;;2.90;2.40;;;;;;;18.53;74.64;100790.92;1779424;78;21011;-45
2021/05/26 06:22:36;;;;;;;3.55;2.27;;;;;;;18.57;74.64;100790.15;1755722;80;21047;-49
2021/05/26 06:25:04;;;;;;;3.27;1.70;;;;;;;18.64;74.30;100791.33;1765271;79;21024;-53
2021/05/26 06:27:31;;;;;;;3.00;2.22;;;;;;;18.70;74.15;100790.81;1759519;79;21045;-52
2021/05/26 06:29:57;;;;;;;1.87;1.62;;;;;;;18.76;73.82;100780.83;1763913;79;20994;-56
2021/05/26 06:32:26;;;;;;;3.33;1.90;;;;;;;18.84;73.40;100772.55;1778893;77;21018;-53
2021/05/26 06:34:54;;;;;;;4.42;1.57;;;;;;;18.89;72.86;100765.74;1799266;77;20990;-57
2021/05/26 06:37:20;;;;;;;5.62;1.45;;;;;;;18.96;72.50;100767.41;1801355;77;21027;-51
2021/05/26 06:39:47;;;;;;;5.47;1.50;;;;;;;19.06;71.59;100772.34;1813747;77;20991;-56
2021/05/26 06:42:14;;;;;;;3.75;1.75;;;;;;;19.17;71.45;100774.08;1804902;77;21530;-48
2021/05/26 06:44:41;;;;;;;7.53;6.72;;;;;;;19.26;71.29;100781.37;1795051;77;20992;-53
2021/05/26 06:47:08;;;;;;;6.80;4.83;;;;;;;19.36;70.75;100774.64;1792211;78;20981;-45
2021/05/26 06:49:35;;;;;;;3.05;2.40;;;;;;;19.41;70.01;100779.97;1776098;79;21866;-50
2021/05/26 06:52:03;;;;;;;2.27;1.57;;;;;;;19.45;69.60;100781.89;1767542;79;21032;-46
2021/05/26 06:54:29;;;;;;;2.00;1.57;;;;;;;19.48;69.29;100785.69;1805876;77;21364;-46
2021/05/26 06:56:56;;;;;;;3.22;1.70;;;;;;;19.52;68.89;100793.01;1767209;79;21022;-47
2021/05/26 06:59:22;;;;;;;2.52;1.20;;;;;;;19.55;68.95;100788.16;1754785;79;21040;-42
2021/05/26 07:01:49;;;;;;;5.50;4.40;;;;;;;19.60;68.95;100781.83;1771464;80;20982;-45
2021/05/26 07:04:18;;;;;;;5.45;3.05;;;;;;;19.65;68.31;100783.64;1762640;79;21075;-44
2021/05/26 07:06:48;;;;;;;4.53;1.77;;;;;;;19.72;68.66;100783.95;1760010;79;21582;-43
2021/05/26 07:09:14;;;;;;;3.60;1.82;;;;;;;19.79;68.76;100792.36;1765654;80;21005;-42
2021/05/26 07:11:42;;;;;;;3.15;2.10;;;;;;;19.82;68.15;100787.51;1768601;79;21930;-44
2021/05/26 07:14:10;;;;;;;4.35;2.00;;;;;;;19.84;67.64;100792.28;1786481;78;20981;-44
2021/05/26 07:16:37;;;;;;;2.35;1.42;;;;;;;19.87;67.47;100801.97;1794497;77;21607;-42
2021/05/26 07:19:07;;;;;;;3.10;1.55;;;;;;;19.89;67.61;100802.69;1805886;77;21052;-51
2021/05/26 07:21:33;;;;;;;2.65;1.90;;;;;;;19.92;67.13;100802.91;1809693;78;21009;-43
2021/05/26 07:24:00;;;;;;;2.72;1.50;;;;;;;19.95;66.72;100805.31;1796508;77;21070;-43
2021/05/26 07:26:27;;;;;;;8.03;5.37;;;;;;;19.97;66.35;100817.70;1798939;77;21055;-54
2021/05/26 07:28:53;;;;;;;3.05;1.82;;;;;;;19.99;66.52;100820.28;1763805;79;21043;-52
2021/05/26 07:31:20;;;;;;;4.05;1.90;;;;;;;19.98;66.44;100818.08;1762983;79;21083;-58
2021/05/26 07:33:47;;;;;;;3.90;1.80;;;;;;;20.00;67.13;100828.23;1765311;79;21016;-56
2021/05/26 07:36:17;;;;;;;2.77;1.92;;;;;;;20.00;67.08;100825.53;1779547;78;21001;-53
2021/05/26 07:38:43;;;;;;;2.77;2.20;;;;;;;20.00;66.54;100831.45;1784940;78;20993;-52
2021/05/26 07:41:10;;;;;;;3.12;1.80;;;;;;;19.98;66.39;100836.14;1804344;77;20968;-55
2021/05/26 07:43:37;;;;;;;2.87;1.55;;;;;;;19.95;66.49;100837.78;1763457;79;20997;-50
2021/05/26 07:46:04;;;;;;;1.95;1.60;;;;;;;19.93;66.84;100839.27;1807401;78;20945;-55
2021/05/26 07:48:36;;;;;;;1.90;1.60;;;;;;;19.93;67.28;100838.42;1806937;77;21571;-54
2021/05/26 07:51:18;;;;;;;3.12;2.20;;;;;;;19.90;67.62;100835.50;1766943;78;21020;-56
2021/05/26 07:53:46;;;;;;;4.85;1.77;;;;;;;19.89;67.63;100839.22;1794972;77;21008;-54
2021/05/26 07:56:13;;;;;;;4.90;2.08;;;;;;;19.88;67.76;100836.13;1789803;78;21040;-56
2021/05/26 07:58:40;;;;;;;2.60;1.90;;;;;;;19.88;68.00;100832.95;1768046;79;21045;-53
2021/05/26 08:01:07;;;;;;;2.72;2.00;;;;;;;19.91;68.02;100832.29;1765179;79;21010;-47
2021/05/26 08:03:33;;;;;;;4.12;2.00;;;;;;;19.92;68.16;100838.92;1767602;79;21089;-50
2021/05/26 08:06:00;;;;;;;8.00;2.52;;;;;;;19.96;68.50;100839.48;1769764;79;21016;-56
2021/05/26 08:08:27;;;;;;;8.03;2.70;;;;;;;19.95;68.53;100841.34;1805985;77;21033;-57
2021/05/26 08:10:54;;;;;;;3.00;1.72;;;;;;;19.95;68.64;100845.91;1815897;77;21005;-58
2021/05/26 08:13:20;;;;;;;3.00;1.98;;;;;;;19.94;68.75;100831.53;1807150;77;21028;-57
2021/05/26 08:15:48;;;;;;;44.88;12.50;;;;;;;19.95;68.70;100837.78;1801729;77;21013;-56
2021/05/26 08:18:16;;;;;;;7.37;2.80;;;;;;;19.96;68.92;100839.02;1810850;77;21001;-49
2021/05/26 08:20:43;;;;;;;3.37;2.80;;;;;;;19.94;68.92;100841.00;1791744;78;21506;-46
2021/05/26 08:23:11;;;;;;;4.55;1.80;;;;;;;19.94;69.19;100848.27;1800446;78;21063;-51
2021/05/26 08:25:37;;;;;;;3.60;2.20;;;;;;;19.94;69.25;100850.97;1768697;79;21516;-51
2021/05/26 08:30:18;;;;;;;5.00;2.75;;;;;;;19.97;69.00;100850.18;1797443;78;22987;-47
2021/05/26 08:32:54;;;;;;;5.55;2.67;;;;;;;19.89;68.74;100847.33;1779564;79;20985;-45
2021/05/26 08:35:21;;;;;;;5.53;2.58;;;;;;;19.85;68.65;100847.25;1771566;78;21861;-56
2021/05/26 08:37:48;;;;;;;6.60;2.67;;;;;;;19.82;68.83;100852.44;1782457;79;20996;-55
2021/05/26 08:40:17;;;;;;;4.03;2.08;;;;;;;19.83;68.87;100850.11;1781380;80;21025;-52
2021/05/26 08:42:45;;;;;;;3.85;2.33;;;;;;;19.82;68.97;100843.48;1783988;79;20988;-51
2021/05/26 08:45:13;;;;;;;5.05;2.02;;;;;;;19.79;68.93;100840.55;1715444;81;21017;-51
2021/05/26 08:47:42;;;;;;;4.37;2.45;;;;;;;19.77;69.24;100837.63;1724535;81;21567;-55
2021/05/26 08:50:09;;;;;;;3.85;2.17;;;;;;;19.76;69.42;100838.64;1720303;81;21041;-54
2021/05/26 08:52:36;;;;;;;4.50;2.15;;;;;;;19.78;69.56;100836.63;1753056;81;21091;-49
2021/05/26 08:55:03;;;;;;;3.33;2.60;;;;;;;19.80;69.75;100840.05;1750931;81;21033;-52
2021/05/26 08:57:30;;;;;;;3.90;2.40;;;;;;;19.81;69.71;100835.86;1750295;81;21024;-46
2021/05/26 08:59:56;;;;;;;5.22;2.37;;;;;;;19.82;69.57;100837.56;1752064;81;21504;-47
2021/05/26 09:02:24;;;;;;;3.55;2.52;;;;;;;19.86;69.50;100832.74;1752657;81;21057;-53
2021/05/26 09:04:50;;;;;;;3.62;2.45;;;;;;;19.89;69.52;100832.45;1686446;83;21112;-47
2021/05/26 09:07:21;;;;;;;3.62;2.60;;;;;;;19.94;69.50;100836.09;1688340;83;21073;-47
2021/05/26 09:10:00;;;;;;;4.85;2.15;;;;;;;19.96;69.42;100843.55;1694897;84;21034;-48
2021/05/26 09:12:37;;;;;;;3.58;2.10;;;;;;;19.97;69.10;100845.27;1689064;84;20993;-48
2021/05/26 09:15:16;;;;;;;2.65;2.12;;;;;;;19.94;69.28;100851.83;1685673;84;21532;-48
2021/05/26 09:17:50;;;;;;;2.60;1.85;;;;;;;19.94;69.42;100850.47;1703555;82;21020;-48
2021/05/26 09:20:28;;;;;;;2.87;2.05;;;;;;;19.95;69.48;100854.88;1701501;83;21445;-48
2021/05/26 09:23:14;;;;;;;4.20;2.22;;;;;;;19.95;69.51;100858.08;1708944;82;21056;-49
2021/05/26 09:25:50;;;;;;;4.33;2.05;;;;;;;19.93;69.53;100856.01;1703567;83;21030;-49
2021/05/26 09:28:31;;;;;;;3.50;2.20;;;;;;;19.92;69.55;100858.38;1700543;82;21064;-49
2021/05/26 09:31:08;;;;;;;6.12;2.87;;;;;;;19.92;69.53;100857.02;1691341;83;20987;-49
2021/05/26 09:33:44;;;;;;;3.47;2.37;;;;;;;19.92;69.58;100857.02;1689837;83;21041;-44
2021/05/26 09:36:24;;;;;;;3.83;2.17;;;;;;;19.92;69.71;100858.38;1698514;83;21494;-44
2021/05/26 09:38:57;;;;;;;3.35;2.65;;;;;;;19.92;69.75;100859.22;1701620;84;21057;-52
2021/05/26 09:41:28;;;;;;;4.83;2.83;;;;;;;19.90;69.52;100862.56;1729488;81;21042;-51
2021/05/26 09:44:10;;;;;;;3.55;2.35;;;;;;;19.91;69.89;100860.23;1729922;81;21571;-48
2021/05/26 09:46:43;;;;;;;6.07;3.77;;;;;;;19.91;69.98;100862.94;1732700;81;21812;-45
2021/05/26 09:49:17;;;;;;;5.30;2.50;;;;;;;19.94;70.19;100868.56;1733304;81;21566;-49
2021/05/26 09:51:57;;;;;;;4.30;2.77;;;;;;;19.96;70.19;100863.84;1733339;81;21533;-54
2021/05/26 09:54:28;;;;;;;3.20;2.30;;;;;;;19.98;70.19;100869.50;1733156;81;21034;-49
2021/05/26 09:57:06;;;;;;;5.75;5.05;;;;;;;19.99;69.73;100876.61;1730040;81;21572;-46
2021/05/26 09:59:34;;;;;;;6.45;5.00;;;;;;;19.98;69.47;100874.91;1724621;81;21043;-51
2021/05/26 10:02:06;;;;;;;7.70;5.78;;;;;;;19.98;69.45;100876.27;1727975;81;21022;-47
2021/05/26 10:04:29;;;;;;;4.45;2.72;;;;;;;19.98;69.84;100875.38;1728660;81;21062;-53
2021/05/26 10:07:15;;;;;;;5.58;2.15;;;;;;;19.97;69.71;100873.69;1731951;81;21006;-52
2021/05/26 10:09:44;;;;;;;2.95;2.50;;;;;;;19.93;69.86;100887.98;1731180;81;21069;-44
2021/05/26 10:12:19;;;;;;;5.22;2.87;;;;;;;19.87;69.97;100884.50;1714360;81;21027;-53
2021/05/26 10:14:47;;;;;;;3.10;2.47;;;;;;;19.82;70.18;100888.97;1728588;81;21000;-46
2021/05/26 10:17:19;;;;;;;3.72;2.30;;;;;;;19.80;70.36;100888.24;1730373;81;21530;-49
2021/05/26 10:19:43;;;;;;;4.33;2.50;;;;;;;19.79;70.47;100884.34;1729461;81;21022;-45
2021/05/26 10:22:10;;;;;;;6.03;2.87;;;;;;;19.78;70.60;100879.44;1726215;81;21069;-44
2021/05/26 10:24:36;;;;;;;4.53;2.10;;;;;;;19.78;70.73;100883.97;1727471;81;21038;-47
2021/05/26 10:27:04;;;;;;;7.10;2.85;;;;;;;19.78;70.87;100875.85;1722296;81;21054;-52
2021/05/26 10:29:39;;;;;;;5.05;3.65;;;;;;;19.80;70.97;100891.45;1730846;81;21049;-49
2021/05/26 10:32:18;;;;;;;3.98;3.02;;;;;;;19.81;71.26;100884.56;1732753;81;21019;-52
2021/05/26 10:34:51;;;;;;;3.42;2.47;;;;;;;19.83;71.34;100884.41;1727543;81;21007;-54
2021/05/26 10:37:25;;;;;;;4.95;2.50;;;;;;;19.82;71.29;100880.85;1723776;81;21006;-52
2021/05/26 10:39:52;;;;;;;5.47;2.58;;;;;;;19.79;71.37;100885.70;1732880;81;20994;-47
2021/05/26 10:42:29;;;;;;;4.35;2.50;;;;;;;19.78;71.21;100886.20;1732118;81;21018;-53
2021/05/26 10:45:06;;;;;;;6.28;4.03;;;;;;;19.77;71.17;100882.27;1725488;81;21014;-47
2021/05/26 10:47:46;;;;;;;11.55;8.50;;;;;;;19.78;71.56;100894.80;1726232;81;21041;-44
2021/05/26 10:50:23;;;;;;;4.72;3.00;;;;;;;19.77;71.49;100891.23;1733577;81;21006;-42
2021/05/26 10:53:01;;;;;;;3.75;2.17;;;;;;;19.74;71.29;100887.97;1726058;81;21038;-41
2021/05/26 10:55:43;;;;;;;3.43;2.73;;;;;;;19.71;71.17;100893.16;1728225;81;20990;-44
2021/05/26 10:58:18;;;;;;;8.53;3.70;;;;;;;19.71;71.16;100893.16;1725827;81;21798;-46
2021/05/26 11:01:08;;;;;;;4.60;2.35;;;;;;;19.70;71.45;100890.58;1730824;81;21010;-42
2021/05/26 11:03:38;;;;;;;5.92;2.87;;;;;;;19.70;71.66;100896.84;1724815;81;21058;-50
2021/05/26 11:06:22;;;;;;;3.83;2.30;;;;;;;19.71;71.83;100890.95;1721893;81;21058;-44
2021/05/26 11:08:55;;;;;;;3.75;2.30;;;;;;;19.69;72.00;100892.94;1730327;81;20998;-46
2021/05/26 11:11:40;;;;;;;3.00;2.50;;;;;;;19.64;72.22;100892.81;1729738;82;20989;-43
2021/05/26 11:14:18;;;;;;;5.67;2.62;;;;;;;19.60;72.62;100894.08;1727938;81;21081;-41
2021/05/26 11:16:54;;;;;;;4.95;2.67;;;;;;;19.57;72.99;100887.59;1725960;81;21586;-43
2021/05/26 11:19:25;;;;;;;6.90;3.17;;;;;;;19.56;73.74;100884.55;1728198;81;21010;-43
2021/05/26 11:22:03;;;;;;;6.12;3.27;;;;;;;19.53;74.51;100886.66;1727679;81;20990;-43
2021/05/26 11:24:35;;;;;;;3.92;2.40;;;;;;;19.50;75.29;100892.34;1733774;81;21011;-42
2021/05/26 11:27:22;;;;;;;6.28;2.75;;;;;;;19.48;75.89;100890.27;1719580;81;21020;-40
2021/05/26 11:29:51;;;;;;;4.55;2.72;;;;;;;19.43;76.18;100883.95;1740352;81;21592;-42
2021/05/26 11:32:20;;;;;;;3.17;2.85;;;;;;;19.41;76.68;100884.57;1746139;81;20985;-42
2021/05/26 11:34:49;;;;;;;4.60;3.45;;;;;;;19.38;77.15;100889.75;1740120;81;21077;-41
2021/05/26 11:37:36;;;;;;;4.28;2.72;;;;;;;19.36;77.60;100889.03;1741452;82;21009;-42